Island Park, ID

11:25 AM MDT on April 27, 2015 (GMT -0600)
RAWS | | Change Station
CLOSE
Current Station
Personal Weather Station
Location: Island Park, ID
Elevation: 6336 ft
Nearby Weather Stations

Elev 6336 ft 44.42 °N, 111.37 °W | Updated 31 minutes ago

Partly Cloudy
Partly Cloudy
41 °F
Feels Like 37 °F
N
6
Wind Variable Wind from NNE
Gusts 10.0 mph

Today
High -- | Low -- °F
--% Chance of Precip.
Yesterday
High -- | Low -- °F
Precip. -- in
6:22 AM 8:24 PM
Waxing Gibbous, 66% visible
Pressure 30.34 in
Visibility -9999.0 miles
Clouds
Windchill 37 °F
Dew Point 28 °F
Humidity 58%
Rainfall in
Snow Depth Not available.
UV Not available.
Pollen 5.50 out of 12
Air Quality Not available.
Flu Activity Sporadic
METAR KP60 271656Z AUTO 11005KT 01/M04 A3034 RMK AO1 SLP274 T00111039

More Conditions Fewer Conditions

Pressure 30.34 in
Visibility -9999.0 miles
Clouds
Windchill 37 °F
Dew Point 28 °F
Humidity 58%
Rainfall in
Snow Depth Not available.
UV Not available.
Pollen 5.50 out of 12
Air Quality Not available.
Flu Activity Sporadic
METAR KP60 271656Z AUTO 11005KT 01/M04 A3034 RMK AO1 SLP274 T00111039

More Conditions Fewer Conditions

10-Day Weather Forecast

Almanac

Astronomy

Apr. 27, 2015 Rise Set
Actual Time
Civil Twilight
Nautical Twilight
Astronomical Twilight
Moon
Length of Visible Light
Length of Day
Tomorrow will be .
, % of the Moon is Illuminated

Today's Extremes

State Highs State Lows

Community

WunderPhotos

Upload Photos

1,817,353 photos uploaded!

WunderBlogs® & News

Nearby

Air Quality

  Air Quality AQ Index Pollutant
Not available.

Snow Depth

Station Depth Elevation

Earthquake Activity

City Distance Mag. Time & Date
Minimum magnitude displayed is 2.5.

Coastal Water Temperatures

Place Temperature

Stations

Nearby Weather Stations

Station Location Temp. Windchill Dew Point Humidity Wind Precip. Elev Updated Type